Time;durP1;ratioP1;P1;durP2;ratioP2;P2;SDS_P1;SDS_P2;PMS_P1;PMS_P2;Temp;Humidity;BMP_temperature;BMP_pressure;BME280_temperature;BME280_humidity;BME280_pressure;Samples;Min_cycle;Max_cycle;Signal;HPM_P1;HPM_P2
2022/06/02 00:01:12;;;;;;;;;;;7.60;99.90;;;;;;4969538;28;19926;-71
2022/06/02 00:03:42;;;;;;;;;;;7.60;99.90;;;;;;4969091;28;19933;-70
2022/06/02 00:06:41;;;;;;;;;;;7.60;99.90;;;;;;4953473;28;19929;-71
2022/06/02 00:09:26;;;;;;;;;;;7.60;99.90;;;;;;4941685;28;19929;-71
2022/06/02 00:11:55;;;;;;;;;;;7.50;99.90;;;;;;4968089;28;19933;-71
2022/06/02 00:14:41;;;;;;;;;;;7.50;99.90;;;;;;4985390;28;19922;-71
2022/06/02 00:17:33;;;;;;;;;;;7.50;99.90;;;;;;4977617;28;20454;-71
2022/06/02 00:20:05;;;;;;;;;;;7.40;99.90;;;;;;4968452;28;19980;-71
2022/06/02 00:22:43;;;;;;;;;;;7.40;99.90;;;;;;4964620;28;20013;-71
2022/06/02 00:25:16;;;;;;;;;;;7.40;99.90;;;;;;4962338;28;19930;-71
2022/06/02 00:28:01;;;;;;;;;;;7.40;99.90;;;;;;4962482;28;19988;-71
2022/06/02 00:30:35;;;;;;;;;;;7.30;99.90;;;;;;4961451;28;19933;-71
2022/06/02 00:33:04;;;;;;;;;;;7.30;99.90;;;;;;4983069;28;19933;-71
2022/06/02 00:35:32;;;;;;;;;;;7.30;99.90;;;;;;4983108;28;19927;-70
2022/06/02 00:38:03;;;;;;;;;;;7.30;99.90;;;;;;4968647;28;19970;-71
2022/06/02 00:40:30;;;;;;;;;;;7.30;99.90;;;;;;4969155;28;19980;-70
2022/06/02 00:42:57;;;;;;;;;;;7.20;99.90;;;;;;4965953;28;19997;-71
2022/06/02 00:45:22;;;;;;;;;;;7.20;99.90;;;;;;4963787;28;20086;-71
2022/06/02 00:47:50;;;;;;;;;;;7.20;99.90;;;;;;4959587;28;19926;-71
2022/06/02 00:50:32;;;;;;;;;;;7.20;99.90;;;;;;4964052;28;19945;-70
2022/06/02 00:52:58;;;;;;;;;;;7.20;99.90;;;;;;4961642;28;19929;-71
2022/06/02 00:58:20;;;;;;;;;;;7.10;99.90;;;;;;4962622;28;20216;-72
2022/06/02 01:01:05;;;;;;;;;;;7.10;99.90;;;;;;4964897;28;20390;-71
2022/06/02 01:03:39;;;;;;;;;;;7.10;99.90;;;;;;4960729;28;20317;-71
2022/06/02 01:06:26;;;;;;;;;;;7.00;99.90;;;;;;4960298;28;19996;-71
2022/06/02 01:09:10;;;;;;;;;;;7.00;99.90;;;;;;4976547;28;19926;-71
2022/06/02 01:11:54;;;;;;;;;;;7.00;99.90;;;;;;4963456;28;19929;-71
2022/06/02 01:14:31;;;;;;;;;;;7.00;99.90;;;;;;4965911;28;19922;-71
2022/06/02 01:17:16;;;;;;;;;;;7.00;99.90;;;;;;4966270;28;19921;-71
2022/06/02 01:19:41;;;;;;;;;;;6.90;99.90;;;;;;4965163;28;19993;-70
2022/06/02 01:22:07;;;;;;;;;;;6.90;99.90;;;;;;4963256;28;20438;-71
2022/06/02 01:24:39;;;;;;;;;;;6.90;99.90;;;;;;4979511;28;19969;-71
2022/06/02 01:27:20;;;;;;;;;;;6.90;99.90;;;;;;4979771;28;19922;-71
2022/06/02 01:30:05;;;;;;;;;;;6.90;99.90;;;;;;4947460;28;19937;-71
2022/06/02 01:32:42;;;;;;;;;;;6.90;99.90;;;;;;4960622;28;19926;-72
2022/06/02 01:35:27;;;;;;;;;;;6.90;99.90;;;;;;4980642;28;19925;-71
2022/06/02 01:38:08;;;;;;;;;;;6.80;99.90;;;;;;4965945;28;20013;-71
2022/06/02 01:41:00;;;;;;;;;;;6.90;99.90;;;;;;4960308;28;19925;-71
2022/06/02 01:43:29;;;;;;;;;;;6.90;99.90;;;;;;4963233;28;20044;-71
2022/06/02 01:46:14;;;;;;;;;;;6.80;99.90;;;;;;4967252;28;19989;-71
2022/06/02 01:48:58;;;;;;;;;;;6.90;99.90;;;;;;4968262;28;19926;-71
2022/06/02 01:51:29;;;;;;;;;;;6.90;99.90;;;;;;4980986;28;19941;-71
2022/06/02 01:54:21;;;;;;;;;;;6.90;99.90;;;;;;4965686;28;20273;-71
2022/06/02 01:56:56;;;;;;;;;;;6.90;99.90;;;;;;4942903;28;20276;-71
2022/06/02 01:59:21;;;;;;;;;;;7.00;99.90;;;;;;4999126;28;19949;-71
2022/06/02 02:02:05;;;;;;;;;;;7.00;99.90;;;;;;4967979;28;19926;-71
2022/06/02 02:04:31;;;;;;;;;;;7.10;99.90;;;;;;4951441;28;19926;-71
2022/06/02 02:07:03;;;;;;;;;;;7.10;99.90;;;;;;4965579;28;20406;-72
2022/06/02 02:09:41;;;;;;;;;;;7.10;99.90;;;;;;4968190;28;20111;-72
2022/06/02 02:12:11;;;;;;;;;;;7.20;99.90;;;;;;4966447;28;19922;-72
2022/06/02 02:14:40;;;;;;;;;;;7.20;99.90;;;;;;4984858;28;19926;-71
2022/06/02 02:17:15;;;;;;;;;;;7.20;99.90;;;;;;4969028;28;19922;-72
2022/06/02 02:19:50;;;;;;;;;;;7.20;99.90;;;;;;4967596;28;20422;-72
2022/06/02 02:22:16;;;;;;;;;;;7.10;99.90;;;;;;4985081;28;19922;-73
2022/06/02 02:24:46;;;;;;;;;;;7.20;99.90;;;;;;4957068;28;19930;-73
2022/06/02 02:27:23;;;;;;;;;;;7.30;99.90;;;;;;4969905;28;19929;-70
2022/06/02 02:30:10;;;;;;;;;;;7.10;99.90;;;;;;4970634;28;20020;-72
2022/06/02 02:32:55;;;;;;;;;;;7.10;99.90;;;;;;4970882;28;19977;-71
2022/06/02 02:35:39;;;;;;;;;;;7.10;99.90;;;;;;4971366;28;20025;-71
2022/06/02 02:38:10;;;;;;;;;;;7.10;99.90;;;;;;4969211;28;19930;-71
2022/06/02 02:40:54;;;;;;;;;;;7.10;99.90;;;;;;4970552;28;19965;-72
2022/06/02 02:43:39;;;;;;;;;;;7.10;99.90;;;;;;4968777;28;20438;-71
2022/06/02 02:46:09;;;;;;;;;;;7.10;99.90;;;;;;4970232;28;19926;-71
2022/06/02 02:48:37;;;;;;;;;;;7.00;99.90;;;;;;4970006;28;19922;-72
2022/06/02 02:51:23;;;;;;;;;;;7.00;99.90;;;;;;4970988;28;19976;-73
2022/06/02 02:53:49;;;;;;;;;;;6.90;99.90;;;;;;4969642;28;20000;-72
2022/06/02 02:56:18;;;;;;;;;;;6.90;99.90;;;;;;4962467;28;19922;-72
2022/06/02 02:59:13;;;;;;;;;;;6.90;99.90;;;;;;4961031;28;20472;-72
2022/06/02 03:02:08;;;;;;;;;;;6.90;99.90;;;;;;4976326;28;19925;-72
2022/06/02 03:05:09;;;;;;;;;;;6.90;99.90;;;;;;4976904;28;19926;-72
2022/06/02 03:07:35;;;;;;;;;;;6.80;99.90;;;;;;4969741;28;19925;-72
2022/06/02 03:10:06;;;;;;;;;;;6.80;99.90;;;;;;4964761;28;19949;-72
2022/06/02 03:12:52;;;;;;;;;;;6.80;99.90;;;;;;4962869;28;19968;-72
2022/06/02 03:15:36;;;;;;;;;;;6.80;99.90;;;;;;4963255;28;19930;-72
2022/06/02 03:18:24;;;;;;;;;;;6.80;99.90;;;;;;4965026;28;19933;-72
2022/06/02 03:20:59;;;;;;;;;;;6.80;99.90;;;;;;4969625;28;19926;-72
2022/06/02 03:23:24;;;;;;;;;;;6.80;99.90;;;;;;4953384;28;20372;-72
2022/06/02 03:25:53;;;;;;;;;;;6.80;99.90;;;;;;4984709;28;19953;-72
2022/06/02 03:28:19;;;;;;;;;;;6.80;99.90;;;;;;4968960;28;20364;-72
2022/06/02 03:30:52;;;;;;;;;;;6.10;99.90;;;;;;4985799;28;19973;-72
2022/06/02 03:33:25;;;;;;;;;;;6.90;99.90;;;;;;4970003;28;19926;-71
2022/06/02 03:35:54;;;;;;;;;;;6.80;99.90;;;;;;4952008;28;19923;-72
2022/06/02 03:38:20;;;;;;;;;;;6.80;99.90;;;;;;4985512;28;20536;-72
2022/06/02 03:40:48;;;;;;;;;;;6.90;99.90;;;;;;4970155;28;19968;-72
2022/06/02 03:43:40;;;;;;;;;;;6.80;99.90;;;;;;4970646;28;20017;-71
2022/06/02 03:46:15;;;;;;;;;;;6.80;99.90;;;;;;4969336;28;19938;-72
2022/06/02 03:48:55;;;;;;;;;;;6.80;99.90;;;;;;4969763;28;20426;-72
2022/06/02 03:51:28;;;;;;;;;;;6.90;99.90;;;;;;4985872;28;20274;-72
2022/06/02 03:54:02;;;;;;;;;;;6.80;99.90;;;;;;4952626;28;19922;-72
2022/06/02 03:56:40;;;;;;;;;;;6.90;99.90;;;;;;4967457;28;19923;-72
2022/06/02 03:59:21;;;;;;;;;;;6.90;99.90;;;;;;4969910;28;19921;-72
2022/06/02 04:02:07;;;;;;;;;;;6.90;99.90;;;;;;4966665;28;20048;-72
2022/06/02 04:04:32;;;;;;;;;;;6.90;99.90;;;;;;4961678;28;19933;-72
2022/06/02 04:07:06;;;;;;;;;;;6.90;99.90;;;;;;4963343;28;19926;-72
2022/06/02 04:09:38;;;;;;;;;;;7.00;99.90;;;;;;4966305;28;19934;-72
2022/06/02 04:15:01;;;;;;;;;;;7.10;99.90;;;;;;4969961;28;19945;-72
2022/06/02 04:17:31;;;;;;;;;;;7.20;99.90;;;;;;4951435;28;19976;-72
2022/06/02 04:22:47;;;;;;;;;;;7.30;99.90;;;;;;4968859;28;19953;-72
2022/06/02 04:25:34;;;;;;;;;;;7.30;99.90;;;;;;4968603;28;19941;-71
2022/06/02 04:28:07;;;;;;;;;;;7.40;99.90;;;;;;4963768;28;19939;-72
2022/06/02 04:30:44;;;;;;;;;;;7.50;99.90;;;;;;4960996;28;19937;-72
2022/06/02 04:33:14;;;;;;;;;;;8.60;99.90;;;;;;4965581;28;19933;-72
2022/06/02 04:35:42;;;;;;;;;;;10.30;99.90;;;;;;4983211;28;19926;-72
2022/06/02 04:38:08;;;;;;;;;;;11.90;99.90;;;;;;4967477;28;19925;-72
2022/06/02 04:40:53;;;;;;;;;;;13.20;99.90;;;;;;4965477;28;20442;-72
2022/06/02 04:43:32;;;;;;;;;;;14.60;99.90;;;;;;4965005;28;19926;-72
2022/06/02 04:46:15;;;;;;;;;;;15.80;99.90;;;;;;4964488;28;20020;-72
2022/06/02 04:48:59;;;;;;;;;;;16.90;99.90;;;;;;4963918;28;20765;-72
2022/06/02 04:51:43;;;;;;;;;;;17.80;99.90;;;;;;4965028;28;19945;-72
2022/06/02 04:54:12;;;;;;;;;;;18.60;99.90;;;;;;4962206;28;19925;-72
2022/06/02 04:56:38;;;;;;;;;;;19.20;99.90;;;;;;4961577;28;19985;-72
2022/06/02 04:59:16;;;;;;;;;;;19.90;99.90;;;;;;4962109;28;19930;-72
2022/06/02 05:01:59;;;;;;;;;;;20.40;99.90;;;;;;4984189;28;19972;-73
2022/06/02 05:04:31;;;;;;;;;;;20.90;99.90;;;;;;4961897;28;19922;-73
2022/06/02 05:07:06;;;;;;;;;;;21.40;99.90;;;;;;4965349;28;19926;-73
2022/06/02 05:09:37;;;;;;;;;;;21.80;99.90;;;;;;4963464;28;19926;-74
2022/06/02 05:12:11;;;;;;;;;;;22.20;99.90;;;;;;4964665;28;19926;-73
2022/06/02 05:15:03;;;;;;;;;;;22.60;99.90;;;;;;4950621;28;19936;-74
2022/06/02 05:17:55;;;;;;;;;;;22.90;99.90;;;;;;4968214;28;19928;-74
2022/06/02 05:20:28;;;;;;;;;;;23.30;99.90;;;;;;4950424;28;20023;-74
2022/06/02 05:23:02;;;;;;;;;;;23.50;99.90;;;;;;4967834;28;19929;-71
2022/06/02 05:25:31;;;;;;;;;;;22.30;99.90;;;;;;4980273;28;19922;-74
2022/06/02 05:28:13;;;;;;;;;;;20.90;99.90;;;;;;4969509;28;20387;-74
2022/06/02 05:30:39;;;;;;;;;;;19.70;99.90;;;;;;4967326;28;20379;-74
2022/06/02 05:33:10;;;;;;;;;;;18.50;99.90;;;;;;4982567;28;19922;-73
2022/06/02 05:35:42;;;;;;;;;;;17.40;99.90;;;;;;4950678;28;19926;-73
2022/06/02 05:38:23;;;;;;;;;;;16.60;99.90;;;;;;4965102;28;20061;-73
2022/06/02 05:40:59;;;;;;;;;;;15.90;99.90;;;;;;4968615;28;20347;-73
2022/06/02 05:43:40;;;;;;;;;;;15.00;99.90;;;;;;4965616;28;19925;-73
2022/06/02 05:46:05;;;;;;;;;;;14.70;99.90;;;;;;4956249;28;20371;-73
2022/06/02 05:48:37;;;;;;;;;;;14.30;99.90;;;;;;4961206;28;19973;-73
2022/06/02 05:51:12;;;;;;;;;;;14.00;99.90;;;;;;4956034;28;20069;-73
2022/06/02 05:53:37;;;;;;;;;;;13.70;99.90;;;;;;4949178;28;20290;-73
2022/06/02 05:56:03;;;;;;;;;;;13.60;99.90;;;;;;4956454;28;19922;-73
2022/06/02 05:58:29;;;;;;;;;;;14.20;99.90;;;;;;4964287;28;21271;-73
2022/06/02 06:00:57;;;;;;;;;;;15.00;99.90;;;;;;4963373;28;19980;-72
2022/06/02 06:04:01;;;;;;;;;;;14.70;99.90;;;;;;4957870;28;20265;-73
2022/06/02 06:06:43;;;;;;;;;;;14.30;99.90;;;;;;4991536;28;20842;-72
2022/06/02 06:09:15;;;;;;;;;;;14.00;99.90;;;;;;4998944;28;19922;-73
2022/06/02 06:11:53;;;;;;;;;;;13.70;99.90;;;;;;4961806;28;19922;-73
2022/06/02 06:14:19;;;;;;;;;;;13.50;99.90;;;;;;4961364;28;19933;-72
2022/06/02 06:16:57;;;;;;;;;;;13.70;99.90;;;;;;4961956;28;20433;-72
2022/06/02 06:19:33;;;;;;;;;;;15.30;99.90;;;;;;4951483;28;19926;-72
2022/06/02 06:22:10;;;;;;;;;;;15.90;99.90;;;;;;4950732;28;19933;-72
2022/06/02 06:24:39;;;;;;;;;;;15.40;99.90;;;;;;4950788;28;19965;-73
2022/06/02 06:27:17;;;;;;;;;;;14.90;99.90;;;;;;4980353;28;20272;-73
2022/06/02 06:30:03;;;;;;;;;;;14.80;99.90;;;;;;4962556;28;20387;-72
2022/06/02 06:32:41;;;;;;;;;;;14.50;99.90;;;;;;4958206;28;20001;-73
2022/06/02 06:35:29;;;;;;;;;;;14.10;99.90;;;;;;4976895;28;19926;-72
2022/06/02 06:38:13;;;;;;;;;;;13.90;99.90;;;;;;4960708;28;19926;-71
2022/06/02 06:40:46;;;;;;;;;;;13.80;99.90;;;;;;4960867;28;19985;-72
2022/06/02 06:43:11;;;;;;;;;;;13.70;99.90;;;;;;4964037;28;20178;-72
2022/06/02 06:46:00;;;;;;;;;;;13.50;99.90;;;;;;4963508;28;20311;-71
2022/06/02 06:48:44;;;;;;;;;;;13.70;99.90;;;;;;4962670;28;19981;-72
2022/06/02 06:51:22;;;;;;;;;;;13.80;99.90;;;;;;4962919;28;20536;-72
2022/06/02 06:53:59;;;;;;;;;;;13.80;99.90;;;;;;4965652;28;19926;-72
2022/06/02 06:56:44;;;;;;;;;;;13.90;99.90;;;;;;4979473;28;19922;-72
2022/06/02 06:59:23;;;;;;;;;;;14.00;99.90;;;;;;4965304;28;19976;-73
2022/06/02 07:02:01;;;;;;;;;;;14.20;99.90;;;;;;4970957;28;20314;-72
2022/06/02 07:04:46;;;;;;;;;;;14.30;99.90;;;;;;4972974;28;19925;-72
2022/06/02 07:07:15;;;;;;;;;;;14.30;99.90;;;;;;4970756;28;20303;-71
2022/06/02 07:10:02;;;;;;;;;;;14.50;99.90;;;;;;4954956;28;19968;-72
2022/06/02 07:12:51;;;;;;;;;;;14.60;99.90;;;;;;4953740;28;19933;-72
2022/06/02 07:15:23;;;;;;;;;;;14.70;99.90;;;;;;4971411;28;19926;-72
2022/06/02 07:17:52;;;;;;;;;;;14.80;99.90;;;;;;4966874;28;20001;-72
2022/06/02 07:20:36;;;;;;;;;;;14.80;99.90;;;;;;4984777;28;19926;-71
2022/06/02 07:23:09;;;;;;;;;;;14.70;99.90;;;;;;4968358;28;20287;-71
2022/06/02 07:25:44;;;;;;;;;;;15.30;99.90;;;;;;4971119;28;20300;-72
2022/06/02 07:28:14;;;;;;;;;;;15.40;99.90;;;;;;4968248;28;19937;-72
2022/06/02 07:30:51;;;;;;;;;;;15.70;99.90;;;;;;4967994;28;19922;-72
2022/06/02 07:33:17;;;;;;;;;;;15.90;99.90;;;;;;4967427;28;19937;-71
2022/06/02 07:36:01;;;;;;;;;;;16.30;99.90;;;;;;4968295;28;19925;-71
2022/06/02 07:38:45;;;;;;;;;;;16.70;99.90;;;;;;4966027;28;19987;-71
2022/06/02 07:41:28;;;;;;;;;;;17.10;99.90;;;;;;4968238;28;19930;-71
2022/06/02 07:44:00;;;;;;;;;;;17.10;99.90;;;;;;4970152;28;19926;-71
2022/06/02 07:46:33;;;;;;;;;;;17.00;99.90;;;;;;4970394;28;19930;-72
2022/06/02 07:48:58;;;;;;;;;;;16.70;99.90;;;;;;4965846;28;20021;-71
2022/06/02 07:51:24;;;;;;;;;;;16.40;99.90;;;;;;4967380;28;21667;-71
2022/06/02 07:53:50;;;;;;;;;;;16.20;99.90;;;;;;4972489;28;19921;-71
2022/06/02 07:56:42;;;;;;;;;;;16.00;99.90;;;;;;4970102;28;19965;-72
2022/06/02 07:59:10;;;;;;;;;;;16.00;99.90;;;;;;4982701;28;19926;-71
2022/06/02 08:01:58;;;;;;;;;;;16.10;99.90;;;;;;4964681;28;19929;-71
2022/06/02 08:04:50;;;;;;;;;;;16.30;99.90;;;;;;4964765;28;20307;-71
2022/06/02 08:07:27;;;;;;;;;;;16.60;99.90;;;;;;4966043;28;19929;-71
2022/06/02 08:10:11;;;;;;;;;;;16.80;99.90;;;;;;4949128;28;19957;-71
2022/06/02 08:12:48;;;;;;;;;;;16.70;99.90;;;;;;4969493;28;20012;-71
2022/06/02 08:15:29;;;;;;;;;;;16.80;99.90;;;;;;4964603;28;19922;-71
2022/06/02 08:18:03;;;;;;;;;;;17.20;99.90;;;;;;4982969;28;19926;-71
2022/06/02 08:20:37;;;;;;;;;;;17.50;99.90;;;;;;4953590;28;20466;-71
2022/06/02 08:23:26;;;;;;;;;;;17.30;99.90;;;;;;4969056;28;19932;-71
2022/06/02 08:25:55;;;;;;;;;;;17.00;99.90;;;;;;4950042;28;19922;-71
2022/06/02 08:28:39;;;;;;;;;;;16.90;99.90;;;;;;4986561;28;20011;-71
2022/06/02 08:31:19;;;;;;;;;;;17.00;99.90;;;;;;4968291;28;19926;-71
2022/06/02 08:34:14;;;;;;;;;;;17.30;99.90;;;;;;4985696;28;19937;-71
2022/06/02 08:37:03;;;;;;;;;;;17.90;99.90;;;;;;4963499;28;19922;-70
2022/06/02 08:39:38;;;;;;;;;;;18.00;99.90;;;;;;4959258;28;19949;-70
2022/06/02 08:42:16;;;;;;;;;;;17.80;99.90;;;;;;4968356;28;20024;-71
2022/06/02 08:45:17;;;;;;;;;;;17.60;99.90;;;;;;4954650;28;20013;-71
2022/06/02 08:47:54;;;;;;;;;;;17.50;99.90;;;;;;5003200;28;19932;-71
2022/06/02 08:50:28;;;;;;;;;;;17.80;99.90;;;;;;4967782;28;19929;-71
2022/06/02 08:53:13;;;;;;;;;;;18.40;99.90;;;;;;4964210;28;19926;-72
2022/06/02 08:55:57;;;;;;;;;;;18.70;99.90;;;;;;4969090;28;20073;-71
2022/06/02 08:58:42;;;;;;;;;;;18.60;99.90;;;;;;4952689;28;20003;-71
2022/06/02 09:01:17;;;;;;;;;;;18.40;99.90;;;;;;4968134;28;19949;-70
2022/06/02 09:04:05;;;;;;;;;;;18.00;99.90;;;;;;4965928;28;19922;-71
2022/06/02 09:06:50;;;;;;;;;;;18.10;99.90;;;;;;4966709;28;19933;-71
2022/06/02 09:09:15;;;;;;;;;;;18.70;99.90;;;;;;4964995;28;19926;-71
2022/06/02 09:11:41;;;;;;;;;;;18.70;99.90;;;;;;4969692;28;19945;-70
2022/06/02 09:14:20;;;;;;;;;;;18.50;99.90;;;;;;4969158;28;19959;-70
2022/06/02 09:16:58;;;;;;;;;;;18.20;99.90;;;;;;4961392;28;20376;-71
2022/06/02 09:19:30;;;;;;;;;;;18.20;99.90;;;;;;4984223;28;20435;-70
2022/06/02 09:22:03;;;;;;;;;;;18.60;99.90;;;;;;4966939;28;19923;-71
2022/06/02 09:24:33;;;;;;;;;;;19.30;99.90;;;;;;4966602;28;19965;-71
2022/06/02 09:27:17;;;;;;;;;;;19.60;99.90;;;;;;4969484;28;19925;-71
2022/06/02 09:29:54;;;;;;;;;;;19.60;99.90;;;;;;4968645;28;20456;-71
2022/06/02 09:32:23;;;;;;;;;;;19.40;99.90;;;;;;4965903;28;19922;-70
2022/06/02 09:34:51;;;;;;;;;;;19.10;99.90;;;;;;4965307;28;19964;-71
2022/06/02 09:37:23;;;;;;;;;;;18.80;99.90;;;;;;4981616;28;19939;-71
2022/06/02 09:39:55;;;;;;;;;;;18.50;99.90;;;;;;4947931;28;20062;-71
2022/06/02 09:42:20;;;;;;;;;;;18.30;99.90;;;;;;4964385;28;20288;-71
2022/06/02 09:45:04;;;;;;;;;;;18.60;99.90;;;;;;4969435;28;19976;-71
2022/06/02 09:47:49;;;;;;;;;;;19.00;99.90;;;;;;4964528;28;19934;-70
2022/06/02 09:50:33;;;;;;;;;;;19.60;99.90;;;;;;4963274;28;19930;-71
2022/06/02 09:53:11;;;;;;;;;;;19.80;99.90;;;;;;4958063;28;19933;-71
2022/06/02 09:55:39;;;;;;;;;;;19.80;99.90;;;;;;4962500;28;19929;-71
2022/06/02 09:58:25;;;;;;;;;;;20.20;99.90;;;;;;4977497;28;19926;-71
2022/06/02 10:00:54;;;;;;;;;;;20.60;99.90;;;;;;4961119;28;19926;-70
2022/06/02 10:03:40;;;;;;;;;;;20.60;99.90;;;;;;4962503;28;19926;-70
2022/06/02 10:06:08;;;;;;;;;;;20.30;99.90;;;;;;4963612;28;20321;-70
2022/06/02 10:08:34;;;;;;;;;;;19.80;99.90;;;;;;4960945;28;19926;-70
2022/06/02 10:11:04;;;;;;;;;;;19.40;99.90;;;;;;4964341;28;20503;-71
2022/06/02 10:13:36;;;;;;;;;;;19.20;99.90;;;;;;4979108;28;19930;-70
2022/06/02 10:16:05;;;;;;;;;;;19.10;99.90;;;;;;4976658;28;20314;-71
2022/06/02 10:18:49;;;;;;;;;;;19.50;99.90;;;;;;4962974;28;20272;-70
2022/06/02 10:21:18;;;;;;;;;;;19.80;99.90;;;;;;4963455;28;20288;-70
2022/06/02 10:23:55;;;;;;;;;;;19.70;99.90;;;;;;4961605;28;19934;-71
2022/06/02 10:26:27;;;;;;;;;;;19.40;99.90;;;;;;4963191;28;19933;-70
2022/06/02 10:29:12;;;;;;;;;;;19.20;99.90;;;;;;4963975;28;20310;-70
2022/06/02 10:32:15;;;;;;;;;;;19.10;99.90;;;;;;4961568;28;19941;-70
2022/06/02 10:35:00;;;;;;;;;;;19.00;99.90;;;;;;4963268;28;20012;-70
2022/06/02 10:37:40;;;;;;;;;;;18.70;99.90;;;;;;4969780;28;19926;-71
2022/06/02 10:40:25;;;;;;;;;;;18.60;99.90;;;;;;4965820;28;20043;-71
2022/06/02 10:42:51;;;;;;;;;;;18.90;99.90;;;;;;4961303;28;19926;-70
2022/06/02 10:45:20;;;;;;;;;;;19.30;99.90;;;;;;4968385;28;20306;-70
2022/06/02 10:47:45;;;;;;;;;;;19.20;99.90;;;;;;4964482;28;19948;-70
2022/06/02 10:50:17;;;;;;;;;;;19.00;99.90;;;;;;4982554;28;19930;-71
2022/06/02 10:52:49;;;;;;;;;;;19.10;99.90;;;;;;4966410;28;20021;-70
2022/06/02 10:55:33;;;;;;;;;;;19.60;99.90;;;;;;4981238;28;19925;-70
2022/06/02 10:58:18;;;;;;;;;;;19.90;99.90;;;;;;4966572;28;19922;-70
2022/06/02 11:01:02;;;;;;;;;;;19.90;99.90;;;;;;4965999;28;19938;-70
2022/06/02 11:03:46;;;;;;;;;;;19.80;99.90;;;;;;4965917;28;20395;-70
2022/06/02 11:06:15;;;;;;;;;;;20.20;99.90;;;;;;4968183;28;19933;-70
2022/06/02 11:08:59;;;;;;;;;;;20.10;99.90;;;;;;4982165;28;19930;-70
2022/06/02 11:11:32;;;;;;;;;;;19.90;99.90;;;;;;4979371;28;19976;-70
2022/06/02 11:14:00;;;;;;;;;;;19.50;99.90;;;;;;4982973;28;19929;-70
2022/06/02 11:16:32;;;;;;;;;;;19.20;99.90;;;;;;4982581;28;19934;-70
2022/06/02 11:19:10;;;;;;;;;;;19.00;99.90;;;;;;4966341;28;19926;-70
2022/06/02 11:21:54;;;;;;;;;;;19.20;99.90;;;;;;4965375;28;19946;-70
2022/06/02 11:24:26;;;;;;;;;;;19.70;99.90;;;;;;4964967;28;19981;-70
2022/06/02 11:27:08;;;;;;;;;;;20.30;99.90;;;;;;4980289;28;20372;-70
2022/06/02 11:29:34;;;;;;;;;;;20.80;99.90;;;;;;4981386;28;19933;-70
2022/06/02 11:32:18;;;;;;;;;;;21.00;99.90;;;;;;4980810;28;19926;-70
2022/06/02 11:35:03;;;;;;;;;;;20.90;99.90;;;;;;4945343;28;19933;-70
2022/06/02 11:37:28;;;;;;;;;;;20.40;99.90;;;;;;4965886;28;20598;-70
2022/06/02 11:40:13;;;;;;;;;;;19.90;99.90;;;;;;4965412;28;19926;-70
2022/06/02 11:42:39;;;;;;;;;;;19.80;99.90;;;;;;4961877;28;20514;-70
2022/06/02 11:45:23;;;;;;;;;;;20.00;99.90;;;;;;4960594;28;19972;-70
2022/06/02 11:47:52;;;;;;;;;;;20.20;99.90;;;;;;4981501;28;19926;-71
2022/06/02 11:50:42;;;;;;;;;;;20.20;99.90;;;;;;4966904;28;20413;-71
2022/06/02 11:53:25;;;;;;;;;;;19.90;99.90;;;;;;4964903;28;19984;-72
2022/06/02 11:56:11;;;;;;;;;;;19.60;99.90;;;;;;4965600;28;20383;-71
2022/06/02 11:59:07;;;;;;;;;;;19.40;99.90;;;;;;4963761;28;19927;-71
2022/06/02 12:01:40;;;;;;;;;;;19.30;99.90;;;;;;4982732;28;19932;-71
2022/06/02 12:04:06;;;;;;;;;;;19.40;99.90;;;;;;4996460;28;19926;-71
2022/06/02 12:06:52;;;;;;;;;;;19.60;99.90;;;;;;4979579;28;21049;-71
2022/06/02 12:09:33;;;;;;;;;;;19.60;99.90;;;;;;4963576;28;19937;-71
2022/06/02 12:12:17;;;;;;;;;;;19.90;99.90;;;;;;4979856;28;19961;-70
2022/06/02 12:14:51;;;;;;;;;;;20.30;99.90;;;;;;4963719;28;20633;-70
2022/06/02 12:17:35;;;;;;;;;;;20.50;99.90;;;;;;4963906;28;19926;-70
2022/06/02 12:20:20;;;;;;;;;;;20.70;99.90;;;;;;4964526;28;19926;-70
2022/06/02 12:22:58;;;;;;;;;;;21.00;99.90;;;;;;4978920;28;20343;-70
2022/06/02 12:25:42;;;;;;;;;;;21.20;99.90;;;;;;4966261;28;20017;-69
2022/06/02 12:28:32;;;;;;;;;;;21.10;99.90;;;;;;4982481;28;20017;-70
2022/06/02 12:31:18;;;;;;;;;;;20.90;99.90;;;;;;4985604;28;19922;-70
2022/06/02 12:33:55;;;;;;;;;;;20.90;99.90;;;;;;4969401;28;19961;-70
2022/06/02 12:36:20;;;;;;;;;;;21.10;99.90;;;;;;4952809;28;20442;-70
2022/06/02 12:39:01;;;;;;;;;;;21.20;99.90;;;;;;4970720;28;19929;-70
2022/06/02 12:41:56;;;;;;;;;;;21.10;99.90;;;;;;4969229;28;19926;-70
2022/06/02 12:44:22;;;;;;;;;;;20.90;99.90;;;;;;4979260;28;19979;-69
2022/06/02 12:47:06;;;;;;;;;;;20.50;99.90;;;;;;4984647;28;19966;-69
2022/06/02 12:49:44;;;;;;;;;;;20.20;99.90;;;;;;4998089;28;19926;-70
2022/06/02 12:52:10;;;;;;;;;;;20.20;99.90;;;;;;4983527;28;20624;-70
2022/06/02 12:54:55;;;;;;;;;;;20.00;99.90;;;;;;4995398;28;19929;-70
2022/06/02 12:57:36;;;;;;;;;;;19.60;99.90;;;;;;4963472;28;19929;-70
2022/06/02 13:00:22;;;;;;;;;;;19.20;99.90;;;;;;4983308;28;20261;-70
2022/06/02 13:02:57;;;;;;;;;;;19.20;99.90;;;;;;4966288;28;19926;-70
2022/06/02 13:05:42;;;;;;;;;;;19.30;99.90;;;;;;4967984;28;19926;-71
2022/06/02 13:08:31;;;;;;;;;;;19.20;99.90;;;;;;4967367;28;19930;-70
2022/06/02 13:11:03;;;;;;;;;;;19.00;99.90;;;;;;4955942;28;19926;-70
2022/06/02 13:13:31;;;;;;;;;;;18.80;99.90;;;;;;4967274;28;19922;-70
2022/06/02 13:16:16;;;;;;;;;;;18.70;99.90;;;;;;4967092;28;19933;-70
2022/06/02 13:19:01;;;;;;;;;;;18.60;99.90;;;;;;4966235;28;19922;-71
2022/06/02 13:21:56;;;;;;;;;;;18.60;99.90;;;;;;4949337;28;19926;-70
2022/06/02 13:24:41;;;;;;;;;;;18.50;99.90;;;;;;4947385;28;20600;-70
2022/06/02 13:27:24;;;;;;;;;;;18.40;99.90;;;;;;4968346;28;20327;-70
2022/06/02 13:29:56;;;;;;;;;;;18.80;99.90;;;;;;4965952;28;19926;-70
2022/06/02 13:32:41;;;;;;;;;;;19.20;99.90;;;;;;4964525;28;19922;-70
2022/06/02 13:35:07;;;;;;;;;;;19.70;99.90;;;;;;4982129;28;20002;-71
2022/06/02 13:37:36;;;;;;;;;;;20.00;99.90;;;;;;4964081;28;20413;-70
2022/06/02 13:40:20;;;;;;;;;;;20.20;99.90;;;;;;4967484;28;19921;-70
2022/06/02 13:42:58;;;;;;;;;;;20.40;99.90;;;;;;4963960;28;20001;-70
2022/06/02 13:45:30;;;;;;;;;;;20.50;99.90;;;;;;4963521;28;19926;-70
2022/06/02 13:48:10;;;;;;;;;;;20.60;99.90;;;;;;4959766;28;19989;-70
2022/06/02 13:50:40;;;;;;;;;;;20.50;99.90;;;;;;4975224;28;19948;-70
2022/06/02 13:53:09;;;;;;;;;;;20.50;99.90;;;;;;4963498;28;20636;-70
2022/06/02 13:58:28;;;;;;;;;;;20.50;99.90;;;;;;4962411;28;20016;-70
2022/06/02 14:01:16;;;;;;;;;;;20.20;99.90;;;;;;4961767;28;20024;-70
2022/06/02 14:03:48;;;;;;;;;;;20.20;99.90;;;;;;4959476;28;20383;-69
2022/06/02 14:06:24;;;;;;;;;;;20.10;99.90;;;;;;4959340;28;19932;-70
2022/06/02 14:09:08;;;;;;;;;;;20.00;99.90;;;;;;4960819;28;20401;-70
2022/06/02 14:11:34;;;;;;;;;;;19.60;99.90;;;;;;4963814;28;19932;-70
2022/06/02 14:14:05;;;;;;;;;;;19.20;99.90;;;;;;4947301;28;19926;-70
2022/06/02 14:16:34;;;;;;;;;;;19.20;99.90;;;;;;4963306;28;20697;-70
2022/06/02 14:18:59;;;;;;;;;;;19.30;99.90;;;;;;4947686;28;20346;-70
2022/06/02 14:21:44;;;;;;;;;;;19.30;99.90;;;;;;4962600;28;19930;-70
2022/06/02 14:24:29;;;;;;;;;;;19.30;99.90;;;;;;4966862;28;20438;-69
2022/06/02 14:27:05;;;;;;;;;;;19.40;99.90;;;;;;4962270;28;19926;-70
2022/06/02 14:29:36;;;;;;;;;;;19.50;99.90;;;;;;4963546;28;19926;-70
2022/06/02 14:32:01;;;;;;;;;;;19.50;99.90;;;;;;4960783;28;20282;-70
2022/06/02 14:34:39;;;;;;;;;;;19.40;99.90;;;;;;4997766;28;20025;-70
2022/06/02 14:37:09;;;;;;;;;;;19.40;99.90;;;;;;4965882;28;19928;-70
2022/06/02 14:39:54;;;;;;;;;;;19.40;99.90;;;;;;4966308;28;19933;-69
2022/06/02 14:45:20;;;;;;;;;;;19.60;99.90;;;;;;4967749;28;19922;-70
2022/06/02 14:47:58;;;;;;;;;;;19.60;99.90;;;;;;4982750;28;20583;-70
2022/06/02 14:50:42;;;;;;;;;;;19.70;99.90;;;;;;4950785;28;19925;-70
2022/06/02 14:53:21;;;;;;;;;;;19.80;99.90;;;;;;4965931;28;19939;-70
2022/06/02 14:55:50;;;;;;;;;;;19.80;99.90;;;;;;4982313;28;19926;-70
2022/06/02 14:58:37;;;;;;;;;;;19.90;99.90;;;;;;4964249;28;19930;-70
2022/06/02 15:01:05;;;;;;;;;;;19.90;99.90;;;;;;4965896;28;19948;-71
2022/06/02 15:03:37;;;;;;;;;;;19.70;99.90;;;;;;4981036;28;21403;-70
2022/06/02 15:06:32;;;;;;;;;;;19.60;99.90;;;;;;4947103;28;20398;-70
2022/06/02 15:09:11;;;;;;;;;;;19.60;99.90;;;;;;4959550;28;20284;-69
2022/06/02 15:11:40;;;;;;;;;;;19.30;99.90;;;;;;4965773;28;19926;-70
2022/06/02 15:14:10;;;;;;;;;;;19.30;99.90;;;;;;4962859;28;19928;-69
2022/06/02 15:16:54;;;;;;;;;;;19.10;99.90;;;;;;4961202;28;19926;-70
2022/06/02 15:19:33;;;;;;;;;;;18.90;99.90;;;;;;4963768;28;19926;-70
2022/06/02 15:21:58;;;;;;;;;;;18.70;99.90;;;;;;4979533;28;19926;-69
2022/06/02 15:24:36;;;;;;;;;;;18.60;99.90;;;;;;4961637;28;19945;-70
2022/06/02 15:27:28;;;;;;;;;;;18.60;99.90;;;;;;4963203;28;19938;-70
2022/06/02 15:29:53;;;;;;;;;;;18.50;99.90;;;;;;4963258;28;19936;-70
2022/06/02 15:32:39;;;;;;;;;;;18.50;99.90;;;;;;4960672;28;19930;-70